KILN/ILN METAR and TAF weather

Enter ICAO airport designator
Station Type Date Time Source
KILN METAR 2022/06/30 23:54 UTC NOAA

KILN 302354Z AUTO 20004KT 10SM CLR 31/12 A3007 RMK AO2 SLP167 T03060122 10333 20306 56010


Station Type Date Time Source
KILN Decoded METAR 2022/06/30 23:54 UTC NOAA

WILMINGTON INDUSTRIAL AIRPORT , OH, United States (KILN) 39-26N 083-47W 332M
Jun 30, 2022 - 07:54 PM EDT / 2022.06.30 2354 UTC
Wind: from the SSW (200 degrees) at 5 MPH (4 KT):0
Visibility: 10 mile(s):0
Sky conditions: clear
Temperature: 87.1 F (30.6 C)
Dew Point: 54.0 F (12.2 C)
Relative Humidity: 32%
Pressure (altimeter): 30.07 in. Hg (1018 hPa)
Pressure tendency: 0.03 inches (1.0 hPa) lower than three hours ago
ob: KILN 302354Z AUTO 20004KT 10SM CLR 31/12 A3007 RMK AO2 SLP167 T03060122 10333 20306 56010
cycle: 0

Station Type Date Time Source
KILN TAF 2022/06/30 18:24 UTC NOAA

TAF KILN 301722Z 3018/0118 19010KT P6SM FEW050
FM010000 19005KT P6SM FEW250
FM010500 20006KT P6SM SCT050
FM011500 23011KT P6SM SCT050

Example: see airport list